sensor_id;sensor_type;location;lat;lon;timestamp;pressure;altitude;pressure_sealevel;temperature;humidity
48872;BME280;36154;51.674;7.824;2024-02-23T00:00:29;97851.75;;;20.36;50.99
48872;BME280;36154;51.674;7.824;2024-02-23T00:02:54;97862.94;;;20.37;50.75
48872;BME280;36154;51.674;7.824;2024-02-23T00:05:21;97874.22;;;20.36;50.84
48872;BME280;36154;51.674;7.824;2024-02-23T00:07:47;97898.28;;;20.36;51.08
48872;BME280;36154;51.674;7.824;2024-02-23T00:10:12;97889.72;;;20.36;50.75
48872;BME280;36154;51.674;7.824;2024-02-23T00:12:37;97916.50;;;20.35;50.80
48872;BME280;36154;51.674;7.824;2024-02-23T00:15:03;97932.00;;;20.35;50.55
48872;BME280;36154;51.674;7.824;2024-02-23T00:17:28;97947.53;;;20.35;50.79
48872;BME280;36154;51.674;7.824;2024-02-23T00:19:53;97966.56;;;20.34;50.71
48872;BME280;36154;51.674;7.824;2024-02-23T00:22:18;97992.44;;;20.34;50.41
48872;BME280;36154;51.674;7.824;2024-02-23T00:24:44;97980.41;;;20.33;50.58
48872;BME280;36154;51.674;7.824;2024-02-23T00:27:09;97998.53;;;20.33;50.80
48872;BME280;36154;51.674;7.824;2024-02-23T00:29:35;98006.28;;;20.33;50.64
48872;BME280;36154;51.674;7.824;2024-02-23T00:32:01;98016.63;;;20.33;50.70
48872;BME280;36154;51.674;7.824;2024-02-23T00:34:27;98011.56;;;20.31;50.63
48872;BME280;36154;51.674;7.824;2024-02-23T00:36:52;98021.78;;;20.33;50.64
48872;BME280;36154;51.674;7.824;2024-02-23T00:39:18;98042.47;;;20.33;50.83
48872;BME280;36154;51.674;7.824;2024-02-23T00:41:43;98036.50;;;20.32;50.58
48872;BME280;36154;51.674;7.824;2024-02-23T00:44:08;98053.75;;;20.31;50.67
48872;BME280;36154;51.674;7.824;2024-02-23T00:46:33;98061.50;;;20.31;50.62
48872;BME280;36154;51.674;7.824;2024-02-23T00:48:59;98070.19;;;20.30;50.53
48872;BME280;36154;51.674;7.824;2024-02-23T00:51:24;98083.13;;;20.30;50.57
48872;BME280;36154;51.674;7.824;2024-02-23T00:53:50;98096.06;;;20.30;50.68
48872;BME280;36154;51.674;7.824;2024-02-23T00:56:15;98102.16;;;20.29;50.53
48872;BME280;36154;51.674;7.824;2024-02-23T00:58:40;98111.56;;;20.30;50.64
48872;BME280;36154;51.674;7.824;2024-02-23T01:01:05;98125.41;;;20.29;50.29
48872;BME280;36154;51.674;7.824;2024-02-23T01:03:31;98135.03;;;20.27;50.54
48872;BME280;36154;51.674;7.824;2024-02-23T01:05:56;98128.94;;;20.28;50.48
48872;BME280;36154;51.674;7.824;2024-02-23T01:08:21;98149.63;;;20.28;50.53
48872;BME280;36154;51.674;7.824;2024-02-23T01:10:47;98147.97;;;20.27;50.55
48872;BME280;36154;51.674;7.824;2024-02-23T01:13:12;98147.97;;;20.27;50.62
48872;BME280;36154;51.674;7.824;2024-02-23T01:15:37;98147.97;;;20.27;50.58
48872;BME280;36154;51.674;7.824;2024-02-23T01:18:03;98147.97;;;20.27;50.74
48872;BME280;36154;51.674;7.824;2024-02-23T01:20:30;98148.88;;;20.26;50.60
48872;BME280;36154;51.674;7.824;2024-02-23T01:22:56;98161.81;;;20.26;50.47
48872;BME280;36154;51.674;7.824;2024-02-23T01:25:21;98148.88;;;20.26;50.50
48872;BME280;36154;51.674;7.824;2024-02-23T01:27:47;98152.31;;;20.27;50.53
48872;BME280;36154;51.674;7.824;2024-02-23T01:30:13;98150.66;;;20.26;50.60
48872;BME280;36154;51.674;7.824;2024-02-23T01:32:38;98156.66;;;20.26;50.62
48872;BME280;36154;51.674;7.824;2024-02-23T01:35:05;98146.41;;;20.25;50.64
48872;BME280;36154;51.674;7.824;2024-02-23T01:37:31;98146.31;;;20.26;50.40
48872;BME280;36154;51.674;7.824;2024-02-23T01:39:56;98150.66;;;20.26;50.49
48872;BME280;36154;51.674;7.824;2024-02-23T01:42:21;98165.34;;;20.25;50.50
48872;BME280;36154;51.674;7.824;2024-02-23T01:44:47;98162.03;;;20.23;50.64
48872;BME280;36154;51.674;7.824;2024-02-23T01:47:12;98170.53;;;20.25;50.52
48872;BME280;36154;51.674;7.824;2024-02-23T01:49:38;98176.59;;;20.24;50.35
48872;BME280;36154;51.674;7.824;2024-02-23T01:52:04;98175.69;;;20.25;50.45
48872;BME280;36154;51.674;7.824;2024-02-23T01:54:30;98175.78;;;20.24;50.62
48872;BME280;36154;51.674;7.824;2024-02-23T01:56:57;98178.28;;;20.25;50.23
48872;BME280;36154;51.674;7.824;2024-02-23T01:59:23;98181.78;;;20.24;50.48
48872;BME280;36154;51.674;7.824;2024-02-23T02:01:50;98184.38;;;20.24;50.50
48872;BME280;36154;51.674;7.824;2024-02-23T02:04:15;98207.63;;;20.24;50.41
48872;BME280;36154;51.674;7.824;2024-02-23T02:06:41;98205.88;;;20.25;50.40
48872;BME280;36154;51.674;7.824;2024-02-23T02:09:06;98189.53;;;20.24;50.13
48872;BME280;36154;51.674;7.824;2024-02-23T02:11:32;98205.03;;;20.24;50.57
48872;BME280;36154;51.674;7.824;2024-02-23T02:13:57;98206.00;;;20.23;50.39
48872;BME280;36154;51.674;7.824;2024-02-23T02:16:22;98206.81;;;20.24;50.36
48872;BME280;36154;51.674;7.824;2024-02-23T02:18:47;98212.09;;;20.22;50.28
48872;BME280;36154;51.674;7.824;2024-02-23T02:21:13;98216.34;;;20.23;50.43
48872;BME280;36154;51.674;7.824;2024-02-23T02:23:38;98209.50;;;20.22;50.42
48872;BME280;36154;51.674;7.824;2024-02-23T02:26:04;98218.91;;;20.23;50.32
48872;BME280;36154;51.674;7.824;2024-02-23T02:28:29;98220.75;;;20.21;50.44
48872;BME280;36154;51.674;7.824;2024-02-23T02:30:55;98229.25;;;20.23;50.41
48872;BME280;36154;51.674;7.824;2024-02-23T02:33:21;98232.75;;;20.22;50.26
48872;BME280;36154;51.674;7.824;2024-02-23T02:35:47;98231.09;;;20.21;50.45
48872;BME280;36154;51.674;7.824;2024-02-23T02:38:13;98231.94;;;20.22;50.63
48872;BME280;36154;51.674;7.824;2024-02-23T02:40:38;98241.44;;;20.21;50.59
48872;BME280;36154;51.674;7.824;2024-02-23T02:43:04;98239.69;;;20.22;50.38
48872;BME280;36154;51.674;7.824;2024-02-23T02:45:29;98236.25;;;20.21;50.48
48872;BME280;36154;51.674;7.824;2024-02-23T02:47:54;98246.59;;;20.21;50.46
48872;BME280;36154;51.674;7.824;2024-02-23T02:50:21;98246.59;;;20.21;50.48
48872;BME280;36154;51.674;7.824;2024-02-23T02:52:46;98247.56;;;20.20;50.45
48872;BME280;36154;51.674;7.824;2024-02-23T02:55:12;98251.78;;;20.21;50.35
48872;BME280;36154;51.674;7.824;2024-02-23T02:57:37;98256.94;;;20.21;50.51
48872;BME280;36154;51.674;7.824;2024-02-23T03:00:03;98246.69;;;20.20;50.28
48872;BME280;36154;51.674;7.824;2024-02-23T03:02:36;98256.13;;;20.21;50.28
48872;BME280;36154;51.674;7.824;2024-02-23T03:05:01;98260.47;;;20.20;50.34
48872;BME280;36154;51.674;7.824;2024-02-23T03:07:26;98255.31;;;20.20;50.37
48872;BME280;36154;51.674;7.824;2024-02-23T03:09:52;98257.03;;;20.20;50.36
48872;BME280;36154;51.674;7.824;2024-02-23T03:12:17;98265.66;;;20.20;50.41
48872;BME280;36154;51.674;7.824;2024-02-23T03:14:43;98269.97;;;20.20;50.36
48872;BME280;36154;51.674;7.824;2024-02-23T03:17:08;98261.41;;;20.19;50.29
48872;BME280;36154;51.674;7.824;2024-02-23T03:19:37;98274.31;;;20.19;50.37
48872;BME280;36154;51.674;7.824;2024-02-23T03:22:02;98277.81;;;20.18;50.16
48872;BME280;36154;51.674;7.824;2024-02-23T03:24:28;98287.25;;;20.19;50.16
48872;BME280;36154;51.674;7.824;2024-02-23T03:26:53;98296.78;;;20.19;50.30
48872;BME280;36154;51.674;7.824;2024-02-23T03:29:18;98289.00;;;20.19;50.33
48872;BME280;36154;51.674;7.824;2024-02-23T03:31:44;98293.34;;;20.18;50.20
48872;BME280;36154;51.674;7.824;2024-02-23T03:34:09;98308.84;;;20.18;50.21
48872;BME280;36154;51.674;7.824;2024-02-23T03:36:34;98306.25;;;20.18;50.31
48872;BME280;36154;51.674;7.824;2024-02-23T03:39:00;98308.03;;;20.18;50.24
48872;BME280;36154;51.674;7.824;2024-02-23T03:41:26;98314.00;;;20.18;50.46
48872;BME280;36154;51.674;7.824;2024-02-23T03:43:51;98308.03;;;20.18;50.22
48872;BME280;36154;51.674;7.824;2024-02-23T03:46:17;98303.69;;;20.18;50.29
48872;BME280;36154;51.674;7.824;2024-02-23T03:48:42;98307.22;;;20.17;50.01
48872;BME280;36154;51.674;7.824;2024-02-23T03:51:08;98308.84;;;20.18;50.16
48872;BME280;36154;51.674;7.824;2024-02-23T03:53:34;98308.03;;;20.18;50.31
48872;BME280;36154;51.674;7.824;2024-02-23T03:55:59;98308.84;;;20.18;50.30
48872;BME280;36154;51.674;7.824;2024-02-23T03:58:24;98301.22;;;20.17;50.02
48872;BME280;36154;51.674;7.824;2024-02-23T04:00:50;98309.78;;;20.17;50.07
48872;BME280;36154;51.674;7.824;2024-02-23T04:03:16;98312.38;;;20.17;50.14
48872;BME280;36154;51.674;7.824;2024-02-23T04:05:41;98308.03;;;20.18;50.25
48872;BME280;36154;51.674;7.824;2024-02-23T04:08:06;98321.91;;;20.17;50.47
48872;BME280;36154;51.674;7.824;2024-02-23T04:10:32;98329.53;;;20.18;50.14
48872;BME280;36154;51.674;7.824;2024-02-23T04:12:57;98319.31;;;20.17;50.09
48872;BME280;36154;51.674;7.824;2024-02-23T04:15:23;98325.31;;;20.17;50.14
48872;BME280;36154;51.674;7.824;2024-02-23T04:17:48;98323.63;;;20.16;50.34
48872;BME280;36154;51.674;7.824;2024-02-23T04:20:14;98322.72;;;20.17;50.36
48872;BME280;36154;51.674;7.824;2024-02-23T04:22:39;98336.56;;;20.16;50.09
48872;BME280;36154;51.674;7.824;2024-02-23T04:25:04;98331.38;;;20.16;50.23
48872;BME280;36154;51.674;7.824;2024-02-23T04:27:30;98332.25;;;20.17;50.06
48872;BME280;36154;51.674;7.824;2024-02-23T04:29:56;98334.91;;;20.15;49.97
48872;BME280;36154;51.674;7.824;2024-02-23T04:32:21;98346.91;;;20.16;50.11
48872;BME280;36154;51.674;7.824;2024-02-23T04:34:46;98342.69;;;20.15;50.40
48872;BME280;36154;51.674;7.824;2024-02-23T04:37:12;98324.56;;;20.15;50.05
48872;BME280;36154;51.674;7.824;2024-02-23T04:39:37;98340.09;;;20.15;50.16
48872;BME280;36154;51.674;7.824;2024-02-23T04:42:03;98350.44;;;20.15;50.18
48872;BME280;36154;51.674;7.824;2024-02-23T04:44:29;98344.41;;;20.15;50.27
48872;BME280;36154;51.674;7.824;2024-02-23T04:46:54;98342.69;;;20.15;50.02
48872;BME280;36154;51.674;7.824;2024-02-23T04:49:20;98346.19;;;20.14;50.19
48872;BME280;36154;51.674;7.824;2024-02-23T04:51:45;98345.25;;;20.15;50.08
48872;BME280;36154;51.674;7.824;2024-02-23T04:54:10;98338.41;;;20.14;50.15
48872;BME280;36154;51.674;7.824;2024-02-23T04:56:35;98356.50;;;20.14;50.13
48872;BME280;36154;51.674;7.824;2024-02-23T04:59:01;98353.94;;;20.14;50.10
48872;BME280;36154;51.674;7.824;2024-02-23T05:01:26;98353.94;;;20.14;50.18
48872;BME280;36154;51.674;7.824;2024-02-23T05:03:51;98364.28;;;20.14;50.21
48872;BME280;36154;51.674;7.824;2024-02-23T05:06:17;98368.63;;;20.13;50.25
48872;BME280;36154;51.674;7.824;2024-02-23T05:08:42;98367.75;;;20.13;50.16
48872;BME280;36154;51.674;7.824;2024-02-23T05:11:07;98370.34;;;20.13;50.08
48872;BME280;36154;51.674;7.824;2024-02-23T05:13:33;98365.19;;;20.13;50.13
48872;BME280;36154;51.674;7.824;2024-02-23T05:15:58;98378.09;;;20.13;50.29
48872;BME280;36154;51.674;7.824;2024-02-23T05:18:23;98378.09;;;20.13;50.04
48872;BME280;36154;51.674;7.824;2024-02-23T05:20:49;98379.78;;;20.14;50.04
48872;BME280;36154;51.674;7.824;2024-02-23T05:23:14;98375.53;;;20.13;50.00
48872;BME280;36154;51.674;7.824;2024-02-23T05:25:41;98374.59;;;20.14;50.17
48872;BME280;36154;51.674;7.824;2024-02-23T05:28:06;98377.19;;;20.14;49.94
48872;BME280;36154;51.674;7.824;2024-02-23T05:30:32;98373.78;;;20.13;50.02
48872;BME280;36154;51.674;7.824;2024-02-23T05:32:57;98367.75;;;20.13;49.95
48872;BME280;36154;51.674;7.824;2024-02-23T05:35:24;98368.63;;;20.13;49.97
48872;BME280;36154;51.674;7.824;2024-02-23T05:37:49;98365.19;;;20.13;50.09
48872;BME280;36154;51.674;7.824;2024-02-23T05:40:15;98369.44;;;20.14;50.01
48872;BME280;36154;51.674;7.824;2024-02-23T05:42:40;98365.09;;;20.15;49.97
48872;BME280;36154;51.674;7.824;2024-02-23T05:45:09;98369.44;;;20.14;49.90
48872;BME280;36154;51.674;7.824;2024-02-23T05:47:36;98366.84;;;20.14;49.90
48872;BME280;36154;51.674;7.824;2024-02-23T05:50:02;98374.59;;;20.14;49.87
48872;BME280;36154;51.674;7.824;2024-02-23T05:52:29;98378.97;;;20.13;50.02
48872;BME280;36154;51.674;7.824;2024-02-23T05:54:54;98375.53;;;20.13;49.95
48872;BME280;36154;51.674;7.824;2024-02-23T05:57:21;98384.94;;;20.14;50.00
48872;BME280;36154;51.674;7.824;2024-02-23T05:59:46;98385.78;;;20.15;49.98
48872;BME280;36154;51.674;7.824;2024-02-23T06:02:12;98397.06;;;20.13;50.00
48872;BME280;36154;51.674;7.824;2024-02-23T06:04:37;98392.78;;;20.12;50.03
48872;BME280;36154;51.674;7.824;2024-02-23T06:07:02;98385.84;;;20.13;49.89
48872;BME280;36154;51.674;7.824;2024-02-23T06:09:27;98385.84;;;20.13;50.08
48872;BME280;36154;51.674;7.824;2024-02-23T06:11:53;98391.97;;;20.12;49.88
48872;BME280;36154;51.674;7.824;2024-02-23T06:14:18;98404.91;;;20.12;49.84
48872;BME280;36154;51.674;7.824;2024-02-23T06:16:43;98399.72;;;20.12;49.92
48872;BME280;36154;51.674;7.824;2024-02-23T06:19:09;98398.78;;;20.13;49.93
48872;BME280;36154;51.674;7.824;2024-02-23T06:21:34;98397.16;;;20.12;49.97
48872;BME280;36154;51.674;7.824;2024-02-23T06:23:59;98403.13;;;20.12;49.64
48872;BME280;36154;51.674;7.824;2024-02-23T06:26:25;98403.97;;;20.13;49.87
48872;BME280;36154;51.674;7.824;2024-02-23T06:28:50;98407.47;;;20.12;50.08
48872;BME280;36154;51.674;7.824;2024-02-23T06:31:15;98407.47;;;20.12;49.95
48872;BME280;36154;51.674;7.824;2024-02-23T06:33:41;98414.28;;;20.13;49.89
48872;BME280;36154;51.674;7.824;2024-02-23T06:36:07;98410.06;;;20.12;49.97
48872;BME280;36154;51.674;7.824;2024-02-23T06:38:33;98410.88;;;20.12;49.96
48872;BME280;36154;51.674;7.824;2024-02-23T06:40:58;98420.41;;;20.12;49.95
48872;BME280;36154;51.674;7.824;2024-02-23T06:43:23;98418.66;;;20.12;50.05
48872;BME280;36154;51.674;7.824;2024-02-23T06:45:49;98416.06;;;20.12;50.03
48872;BME280;36154;51.674;7.824;2024-02-23T06:48:14;98416.88;;;20.13;49.90
48872;BME280;36154;51.674;7.824;2024-02-23T06:50:39;98418.66;;;20.12;49.91
48872;BME280;36154;51.674;7.824;2024-02-23T06:53:05;98423.00;;;20.12;49.86
48872;BME280;36154;51.674;7.824;2024-02-23T06:55:31;98423.91;;;20.11;50.10
48872;BME280;36154;51.674;7.824;2024-02-23T06:57:57;98425.59;;;20.12;49.90
48872;BME280;36154;51.674;7.824;2024-02-23T07:00:22;98434.16;;;20.12;49.46
48872;BME280;36154;51.674;7.824;2024-02-23T07:02:47;98425.59;;;20.12;49.83
48872;BME280;36154;51.674;7.824;2024-02-23T07:05:12;98422.16;;;20.11;49.82
48872;BME280;36154;51.674;7.824;2024-02-23T07:07:39;98413.47;;;20.12;49.82
48872;BME280;36154;51.674;7.824;2024-02-23T07:10:06;98439.31;;;20.12;49.83
48872;BME280;36154;51.674;7.824;2024-02-23T07:12:31;98438.50;;;20.12;49.88
48872;BME280;36154;51.674;7.824;2024-02-23T07:14:57;98438.50;;;20.12;49.76
48872;BME280;36154;51.674;7.824;2024-02-23T07:17:22;98423.00;;;20.12;49.73
48872;BME280;36154;51.674;7.824;2024-02-23T07:19:47;98419.47;;;20.13;49.87
48872;BME280;36154;51.674;7.824;2024-02-23T07:22:13;98425.50;;;20.13;49.54
48872;BME280;36154;51.674;7.824;2024-02-23T07:24:42;98419.47;;;20.13;49.78
48872;BME280;36154;51.674;7.824;2024-02-23T07:27:08;98418.66;;;20.12;49.91
48872;BME280;36154;51.674;7.824;2024-02-23T07:29:33;98409.13;;;20.13;49.95
48872;BME280;36154;51.674;7.824;2024-02-23T07:31:58;98411.72;;;20.13;49.81
48872;BME280;36154;51.674;7.824;2024-02-23T07:34:24;98403.97;;;20.13;49.80
48872;BME280;36154;51.674;7.824;2024-02-23T07:36:52;98402.22;;;20.13;49.75
48872;BME280;36154;51.674;7.824;2024-02-23T07:39:18;98403.03;;;20.14;49.79
48872;BME280;36154;51.674;7.824;2024-02-23T07:41:43;98400.47;;;20.14;49.72
48872;BME280;36154;51.674;7.824;2024-02-23T07:44:09;98402.13;;;20.15;49.58
48872;BME280;36154;51.674;7.824;2024-02-23T07:46:34;98396.97;;;20.15;49.57
48872;BME280;36154;51.674;7.824;2024-02-23T07:49:00;98397.78;;;20.16;49.63
48872;BME280;36154;51.674;7.824;2024-02-23T07:51:25;98398.59;;;20.16;49.69
48872;BME280;36154;51.674;7.824;2024-02-23T07:53:51;98414.09;;;20.16;49.92
48872;BME280;36154;51.674;7.824;2024-02-23T07:56:16;98426.13;;;20.17;49.90
48872;BME280;36154;51.674;7.824;2024-02-23T07:58:42;98407.94;;;20.19;49.78
48872;BME280;36154;51.674;7.824;2024-02-23T08:01:07;98415.59;;;20.20;49.80
48872;BME280;36154;51.674;7.824;2024-02-23T08:03:32;98428.44;;;20.22;49.97
48872;BME280;36154;51.674;7.824;2024-02-23T08:05:58;98430.34;;;20.18;45.15
48872;BME280;36154;51.674;7.824;2024-02-23T08:08:23;98420.06;;;20.04;41.40
48872;BME280;36154;51.674;7.824;2024-02-23T08:10:50;98419.34;;;19.87;40.74
48872;BME280;36154;51.674;7.824;2024-02-23T08:13:15;98431.88;;;19.79;41.57
48872;BME280;36154;51.674;7.824;2024-02-23T08:15:43;98445.94;;;19.75;42.71
48872;BME280;36154;51.674;7.824;2024-02-23T08:18:08;98430.63;;;19.72;43.32
48872;BME280;36154;51.674;7.824;2024-02-23T08:20:33;98438.38;;;19.72;44.37
48872;BME280;36154;51.674;7.824;2024-02-23T08:22:59;98450.34;;;19.73;44.54
48872;BME280;36154;51.674;7.824;2024-02-23T08:25:24;98446.84;;;19.74;44.84
48872;BME280;36154;51.674;7.824;2024-02-23T08:27:49;98451.09;;;19.75;45.14
48872;BME280;36154;51.674;7.824;2024-02-23T08:30:14;98465.56;;;19.78;45.38
48872;BME280;36154;51.674;7.824;2024-02-23T08:32:40;98461.97;;;19.80;45.62
48872;BME280;36154;51.674;7.824;2024-02-23T08:35:06;98465.38;;;19.81;45.63
48872;BME280;36154;51.674;7.824;2024-02-23T08:37:32;98462.72;;;19.82;45.83
48872;BME280;36154;51.674;7.824;2024-02-23T08:39:57;98465.22;;;19.84;46.04
48872;BME280;36154;51.674;7.824;2024-02-23T08:42:22;98475.44;;;19.85;46.05
48872;BME280;36154;51.674;7.824;2024-02-23T08:44:48;98471.09;;;19.86;46.10
48872;BME280;36154;51.674;7.824;2024-02-23T08:47:13;98462.34;;;19.88;46.14
48872;BME280;36154;51.674;7.824;2024-02-23T08:49:38;98476.09;;;19.89;46.36
48872;BME280;36154;51.674;7.824;2024-02-23T08:52:04;98474.34;;;19.89;46.45
48872;BME280;36154;51.674;7.824;2024-02-23T08:54:30;98482.84;;;19.91;46.36
48872;BME280;36154;51.674;7.824;2024-02-23T08:56:55;98482.72;;;19.93;46.37
48872;BME280;36154;51.674;7.824;2024-02-23T08:59:20;98486.16;;;19.93;46.46
48872;BME280;36154;51.674;7.824;2024-02-23T09:01:46;98486.97;;;19.94;46.30
48872;BME280;36154;51.674;7.824;2024-02-23T09:04:12;98489.47;;;19.96;46.66
48872;BME280;36154;51.674;7.824;2024-02-23T09:06:37;98491.16;;;19.97;46.56
48872;BME280;36154;51.674;7.824;2024-02-23T09:09:03;98499.63;;;19.99;46.51
48872;BME280;36154;51.674;7.824;2024-02-23T09:11:28;98492.78;;;19.98;46.59
48872;BME280;36154;51.674;7.824;2024-02-23T09:13:53;98497.97;;;19.98;46.76
48872;BME280;36154;51.674;7.824;2024-02-23T09:16:18;98502.13;;;20.00;46.76
48872;BME280;36154;51.674;7.824;2024-02-23T09:18:44;98507.38;;;19.99;46.72
48872;BME280;36154;51.674;7.824;2024-02-23T09:21:09;98502.94;;;20.01;46.57
48872;BME280;36154;51.674;7.824;2024-02-23T09:23:35;98509.78;;;20.02;46.83
48872;BME280;36154;51.674;7.824;2024-02-23T09:26:00;98497.78;;;20.01;46.75
48872;BME280;36154;51.674;7.824;2024-02-23T09:28:25;98499.44;;;20.02;46.82
48872;BME280;36154;51.674;7.824;2024-02-23T09:30:51;98502.03;;;20.02;46.91
48872;BME280;36154;51.674;7.824;2024-02-23T09:33:17;98501.09;;;20.03;46.71
48872;BME280;36154;51.674;7.824;2024-02-23T09:35:42;98511.44;;;20.03;46.93
48872;BME280;36154;51.674;7.824;2024-02-23T09:38:07;98513.09;;;20.04;46.87
48872;BME280;36154;51.674;7.824;2024-02-23T09:40:32;98502.75;;;20.04;46.99
48872;BME280;36154;51.674;7.824;2024-02-23T09:42:58;98487.25;;;20.04;46.90
48872;BME280;36154;51.674;7.824;2024-02-23T09:45:25;98492.44;;;20.04;46.90
48872;BME280;36154;51.674;7.824;2024-02-23T09:47:53;98494.19;;;20.03;47.06
48872;BME280;36154;51.674;7.824;2024-02-23T09:50:20;98496.69;;;20.05;46.80
48872;BME280;36154;51.674;7.824;2024-02-23T09:52:47;98513.00;;;20.05;47.02
48872;BME280;36154;51.674;7.824;2024-02-23T09:55:12;98496.69;;;20.05;46.90
48872;BME280;36154;51.674;7.824;2024-02-23T09:57:38;98496.69;;;20.05;47.00
48872;BME280;36154;51.674;7.824;2024-02-23T10:00:04;98511.25;;;20.06;47.05
48872;BME280;36154;51.674;7.824;2024-02-23T10:02:31;98497.50;;;20.05;46.96
48872;BME280;36154;51.674;7.824;2024-02-23T10:04:57;98511.25;;;20.06;46.84
48872;BME280;36154;51.674;7.824;2024-02-23T10:07:24;98509.41;;;20.08;47.01
48872;BME280;36154;51.674;7.824;2024-02-23T10:09:50;98505.16;;;20.07;47.05
48872;BME280;36154;51.674;7.824;2024-02-23T10:12:16;98501.63;;;20.08;47.12
48872;BME280;36154;51.674;7.824;2024-02-23T10:14:41;98497.31;;;20.08;46.93
48872;BME280;36154;51.674;7.824;2024-02-23T10:17:07;98495.56;;;20.09;46.87
48872;BME280;36154;51.674;7.824;2024-02-23T10:19:33;98501.56;;;20.09;46.81
48872;BME280;36154;51.674;7.824;2024-02-23T10:21:59;98514.38;;;20.11;46.93
48872;BME280;36154;51.674;7.824;2024-02-23T10:24:24;98498.88;;;20.11;47.05
48872;BME280;36154;51.674;7.824;2024-02-23T10:26:53;98507.44;;;20.11;46.85
48872;BME280;36154;51.674;7.824;2024-02-23T10:29:18;98499.69;;;20.11;46.94
48872;BME280;36154;51.674;7.824;2024-02-23T10:31:46;98500.53;;;20.12;46.83
48872;BME280;36154;51.674;7.824;2024-02-23T10:34:19;98489.34;;;20.11;46.86
48872;BME280;36154;51.674;7.824;2024-02-23T10:36:45;98497.00;;;20.13;46.84
48872;BME280;36154;51.674;7.824;2024-02-23T10:39:15;98498.69;;;20.14;46.88
48872;BME280;36154;51.674;7.824;2024-02-23T10:42:07;98500.38;;;20.15;47.14
48872;BME280;36154;51.674;7.824;2024-02-23T10:44:30;98495.19;;;20.15;46.91
48872;BME280;36154;51.674;7.824;2024-02-23T10:46:58;98505.53;;;20.15;46.98
48872;BME280;36154;51.674;7.824;2024-02-23T10:49:24;98508.84;;;20.17;46.76
48872;BME280;36154;51.674;7.824;2024-02-23T10:51:53;98503.69;;;20.17;46.82
48872;BME280;36154;51.674;7.824;2024-02-23T10:54:19;98506.16;;;20.19;46.85
48872;BME280;36154;51.674;7.824;2024-02-23T10:56:50;98506.09;;;20.20;46.80
48872;BME280;36154;51.674;7.824;2024-02-23T10:59:19;98499.22;;;20.19;46.82
48872;BME280;36154;51.674;7.824;2024-02-23T11:01:48;98500.06;;;20.20;46.72
48872;BME280;36154;51.674;7.824;2024-02-23T11:04:17;98502.53;;;20.21;46.85
48872;BME280;36154;51.674;7.824;2024-02-23T11:06:54;98499.06;;;20.22;46.87
48872;BME280;36154;51.674;7.824;2024-02-23T11:09:21;98505.91;;;20.23;46.90
48872;BME280;36154;51.674;7.824;2024-02-23T11:11:55;98508.47;;;20.23;46.70
48872;BME280;36154;51.674;7.824;2024-02-23T11:14:31;98505.91;;;20.23;46.75
48872;BME280;36154;51.674;7.824;2024-02-23T11:17:00;98499.78;;;20.24;46.92
48872;BME280;36154;51.674;7.824;2024-02-23T11:19:36;98508.25;;;20.26;47.10
48872;BME280;36154;51.674;7.824;2024-02-23T11:22:02;98501.44;;;20.25;46.98
48872;BME280;36154;51.674;7.824;2024-02-23T11:24:31;98497.94;;;20.26;47.17
48872;BME280;36154;51.674;7.824;2024-02-23T11:27:00;98509.94;;;20.27;46.94
48872;BME280;36154;51.674;7.824;2024-02-23T11:29:33;98497.56;;;20.18;43.28
48872;BME280;36154;51.674;7.824;2024-02-23T11:32:00;98505.44;;;20.02;38.97
48872;BME280;36154;51.674;7.824;2024-02-23T11:34:30;98505.44;;;19.73;37.80
48872;BME280;36154;51.674;7.824;2024-02-23T11:36:56;98493.59;;;19.55;38.32
48872;BME280;36154;51.674;7.824;2024-02-23T11:39:23;98506.94;;;19.47;38.99
48872;BME280;36154;51.674;7.824;2024-02-23T11:41:49;98501.94;;;19.44;40.18
48872;BME280;36154;51.674;7.824;2024-02-23T11:44:15;98498.53;;;19.44;40.93
48872;BME280;36154;51.674;7.824;2024-02-23T11:46:42;98499.28;;;19.46;41.32
48872;BME280;36154;51.674;7.824;2024-02-23T11:49:07;98499.09;;;19.49;41.84
48872;BME280;36154;51.674;7.824;2024-02-23T11:51:33;98489.50;;;19.51;42.03
48872;BME280;36154;51.674;7.824;2024-02-23T11:53:58;98490.06;;;19.56;42.29
48872;BME280;36154;51.674;7.824;2024-02-23T11:56:27;98482.88;;;19.61;42.47
48872;BME280;36154;51.674;7.824;2024-02-23T11:58:54;98486.97;;;19.65;42.78
48872;BME280;36154;51.674;7.824;2024-02-23T12:01:20;98482.28;;;19.72;42.74
48872;BME280;36154;51.674;7.824;2024-02-23T12:03:45;98485.41;;;19.77;42.75
48872;BME280;36154;51.674;7.824;2024-02-23T12:06:11;98489.56;;;19.80;43.09
48872;BME280;36154;51.674;7.824;2024-02-23T12:08:36;98483.22;;;19.85;43.01
48872;BME280;36154;51.674;7.824;2024-02-23T12:11:08;98496.84;;;19.87;43.13
48872;BME280;36154;51.674;7.824;2024-02-23T12:13:35;98486.25;;;19.92;43.29
48872;BME280;36154;51.674;7.824;2024-02-23T12:16:01;98496.50;;;19.93;43.29
48872;BME280;36154;51.674;7.824;2024-02-23T12:18:27;98479.13;;;19.96;43.23
48872;BME280;36154;51.674;7.824;2024-02-23T12:20:52;98491.97;;;19.97;43.43
48872;BME280;36154;51.674;7.824;2024-02-23T12:23:18;98500.53;;;19.98;43.46
48872;BME280;36154;51.674;7.824;2024-02-23T12:26:13;98499.63;;;19.99;43.58
48872;BME280;36154;51.674;7.824;2024-02-23T12:28:39;98500.34;;;20.01;43.57
48872;BME280;36154;51.674;7.824;2024-02-23T12:31:05;98500.34;;;20.01;43.78
48872;BME280;36154;51.674;7.824;2024-02-23T12:33:33;98497.78;;;20.01;43.82
48872;BME280;36154;51.674;7.824;2024-02-23T12:35:59;98494.28;;;20.02;43.76
48872;BME280;36154;51.674;7.824;2024-02-23T12:38:25;98489.13;;;20.02;43.73
48872;BME280;36154;51.674;7.824;2024-02-23T12:40:50;98498.50;;;20.03;43.86
48872;BME280;36154;51.674;7.824;2024-02-23T12:43:16;98501.09;;;20.03;43.82
48872;BME280;36154;51.674;7.824;2024-02-23T12:45:41;98501.09;;;20.03;43.78
48872;BME280;36154;51.674;7.824;2024-02-23T12:48:09;98504.53;;;20.03;43.91
48872;BME280;36154;51.674;7.824;2024-02-23T12:50:34;98501.94;;;20.03;44.18
48872;BME280;36154;51.674;7.824;2024-02-23T12:52:59;98501.94;;;20.03;44.08